sensor_id;sensor_type;location;lat;lon;timestamp;P1;durP1;ratioP1;P2;durP2;ratioP2
78116;SDS011;69042;59.120;37.904;2023-12-07T00:01:21;4.55;;;2.08;;
78116;SDS011;69042;59.120;37.904;2023-12-07T00:03:47;7.97;;;2.42;;
78116;SDS011;69042;59.120;37.904;2023-12-07T00:06:13;4.82;;;1.50;;
78116;SDS011;69042;59.120;37.904;2023-12-07T00:08:39;4.47;;;2.13;;
78116;SDS011;69042;59.120;37.904;2023-12-07T00:11:06;8.52;;;2.90;;
78116;SDS011;69042;59.120;37.904;2023-12-07T00:13:32;5.28;;;1.80;;
78116;SDS011;69042;59.120;37.904;2023-12-07T00:15:58;3.45;;;1.08;;
78116;SDS011;69042;59.120;37.904;2023-12-07T00:18:24;4.40;;;1.25;;
78116;SDS011;69042;59.120;37.904;2023-12-07T00:20:50;4.47;;;1.75;;
78116;SDS011;69042;59.120;37.904;2023-12-07T00:23:17;5.25;;;2.33;;
78116;SDS011;69042;59.120;37.904;2023-12-07T00:25:43;5.88;;;2.75;;
78116;SDS011;69042;59.120;37.904;2023-12-07T00:28:11;7.75;;;3.05;;
78116;SDS011;69042;59.120;37.904;2023-12-07T00:30:37;6.65;;;2.88;;
78116;SDS011;69042;59.120;37.904;2023-12-07T00:33:03;6.47;;;1.80;;
78116;SDS011;69042;59.120;37.904;2023-12-07T00:35:30;6.75;;;2.45;;
78116;SDS011;69042;59.120;37.904;2023-12-07T00:37:56;6.28;;;2.17;;
78116;SDS011;69042;59.120;37.904;2023-12-07T00:40:22;5.00;;;2.13;;
78116;SDS011;69042;59.120;37.904;2023-12-07T00:42:49;6.95;;;3.05;;
78116;SDS011;69042;59.120;37.904;2023-12-07T00:45:16;8.32;;;2.78;;
78116;SDS011;69042;59.120;37.904;2023-12-07T00:47:42;5.40;;;1.98;;
78116;SDS011;69042;59.120;37.904;2023-12-07T00:50:08;5.10;;;1.75;;
78116;SDS011;69042;59.120;37.904;2023-12-07T00:52:37;6.55;;;1.23;;
78116;SDS011;69042;59.120;37.904;2023-12-07T00:55:04;7.03;;;2.83;;
78116;SDS011;69042;59.120;37.904;2023-12-07T00:57:30;9.77;;;3.22;;
78116;SDS011;69042;59.120;37.904;2023-12-07T00:59:57;7.80;;;2.70;;
78116;SDS011;69042;59.120;37.904;2023-12-07T01:02:23;5.53;;;1.70;;
78116;SDS011;69042;59.120;37.904;2023-12-07T01:04:50;2.72;;;1.67;;
78116;SDS011;69042;59.120;37.904;2023-12-07T01:07:16;3.20;;;1.10;;
78116;SDS011;69042;59.120;37.904;2023-12-07T01:09:42;5.40;;;2.28;;
78116;SDS011;69042;59.120;37.904;2023-12-07T01:12:08;7.10;;;2.83;;
78116;SDS011;69042;59.120;37.904;2023-12-07T01:14:34;9.45;;;3.03;;
78116;SDS011;69042;59.120;37.904;2023-12-07T01:17:01;2.92;;;1.35;;
78116;SDS011;69042;59.120;37.904;2023-12-07T01:19:28;5.22;;;1.77;;
78116;SDS011;69042;59.120;37.904;2023-12-07T01:21:54;5.25;;;2.78;;
78116;SDS011;69042;59.120;37.904;2023-12-07T01:24:20;7.20;;;1.80;;
78116;SDS011;69042;59.120;37.904;2023-12-07T01:26:46;3.60;;;1.15;;
78116;SDS011;69042;59.120;37.904;2023-12-07T01:29:12;2.95;;;1.45;;
78116;SDS011;69042;59.120;37.904;2023-12-07T01:31:40;5.53;;;1.63;;
78116;SDS011;69042;59.120;37.904;2023-12-07T01:34:06;4.68;;;1.92;;
78116;SDS011;69042;59.120;37.904;2023-12-07T01:36:32;5.68;;;2.13;;
78116;SDS011;69042;59.120;37.904;2023-12-07T01:38:59;6.82;;;2.45;;
78116;SDS011;69042;59.120;37.904;2023-12-07T01:41:25;5.78;;;2.15;;
78116;SDS011;69042;59.120;37.904;2023-12-07T01:43:52;8.35;;;2.67;;
78116;SDS011;69042;59.120;37.904;2023-12-07T01:46:18;8.88;;;3.15;;
78116;SDS011;69042;59.120;37.904;2023-12-07T01:48:44;5.38;;;2.13;;
78116;SDS011;69042;59.120;37.904;2023-12-07T01:51:15;6.95;;;2.80;;
78116;SDS011;69042;59.120;37.904;2023-12-07T01:53:42;6.68;;;2.08;;
78116;SDS011;69042;59.120;37.904;2023-12-07T01:56:09;3.67;;;1.73;;
78116;SDS011;69042;59.120;37.904;2023-12-07T01:58:36;5.20;;;2.30;;
78116;SDS011;69042;59.120;37.904;2023-12-07T02:01:03;6.28;;;2.60;;
78116;SDS011;69042;59.120;37.904;2023-12-07T02:03:31;6.57;;;2.67;;
78116;SDS011;69042;59.120;37.904;2023-12-07T02:05:57;7.03;;;2.72;;
78116;SDS011;69042;59.120;37.904;2023-12-07T02:08:24;6.70;;;3.15;;
78116;SDS011;69042;59.120;37.904;2023-12-07T02:10:53;6.25;;;3.08;;
78116;SDS011;69042;59.120;37.904;2023-12-07T02:13:20;6.38;;;2.65;;
78116;SDS011;69042;59.120;37.904;2023-12-07T02:16:27;8.18;;;2.65;;
78116;SDS011;69042;59.120;37.904;2023-12-07T02:19:39;1.77;;;0.90;;
78116;SDS011;69042;59.120;37.904;2023-12-07T02:22:17;4.50;;;2.08;;
78116;SDS011;69042;59.120;37.904;2023-12-07T02:24:48;6.10;;;2.35;;
78116;SDS011;69042;59.120;37.904;2023-12-07T02:27:41;5.18;;;1.83;;
78116;SDS011;69042;59.120;37.904;2023-12-07T02:30:09;6.03;;;2.38;;
78116;SDS011;69042;59.120;37.904;2023-12-07T02:32:37;6.28;;;2.28;;
78116;SDS011;69042;59.120;37.904;2023-12-07T02:35:04;3.33;;;1.55;;
78116;SDS011;69042;59.120;37.904;2023-12-07T02:37:37;5.75;;;2.40;;
78116;SDS011;69042;59.120;37.904;2023-12-07T02:40:08;7.22;;;3.28;;
78116;SDS011;69042;59.120;37.904;2023-12-07T02:42:39;7.68;;;3.42;;
78116;SDS011;69042;59.120;37.904;2023-12-07T02:45:07;7.35;;;2.50;;
78116;SDS011;69042;59.120;37.904;2023-12-07T02:47:34;4.50;;;2.38;;
78116;SDS011;69042;59.120;37.904;2023-12-07T02:50:00;5.55;;;2.70;;
78116;SDS011;69042;59.120;37.904;2023-12-07T02:52:27;8.45;;;2.13;;
78116;SDS011;69042;59.120;37.904;2023-12-07T02:54:54;8.40;;;3.58;;
78116;SDS011;69042;59.120;37.904;2023-12-07T02:57:20;6.55;;;3.00;;
78116;SDS011;69042;59.120;37.904;2023-12-07T02:59:47;6.55;;;2.22;;
78116;SDS011;69042;59.120;37.904;2023-12-07T03:02:13;5.43;;;2.30;;
78116;SDS011;69042;59.120;37.904;2023-12-07T03:04:39;5.45;;;1.65;;
78116;SDS011;69042;59.120;37.904;2023-12-07T03:07:05;8.98;;;3.40;;
78116;SDS011;69042;59.120;37.904;2023-12-07T03:09:31;5.53;;;2.33;;
78116;SDS011;69042;59.120;37.904;2023-12-07T03:11:58;6.47;;;2.60;;
78116;SDS011;69042;59.120;37.904;2023-12-07T03:14:24;7.72;;;3.17;;
78116;SDS011;69042;59.120;37.904;2023-12-07T03:16:50;4.88;;;1.90;;
78116;SDS011;69042;59.120;37.904;2023-12-07T03:19:16;9.10;;;3.08;;
78116;SDS011;69042;59.120;37.904;2023-12-07T03:21:42;6.35;;;2.88;;
78116;SDS011;69042;59.120;37.904;2023-12-07T03:24:08;10.02;;;3.63;;
78116;SDS011;69042;59.120;37.904;2023-12-07T03:26:35;6.32;;;2.20;;
78116;SDS011;69042;59.120;37.904;2023-12-07T03:29:02;7.35;;;2.30;;
78116;SDS011;69042;59.120;37.904;2023-12-07T03:31:29;3.80;;;1.98;;
78116;SDS011;69042;59.120;37.904;2023-12-07T03:34:13;7.75;;;3.33;;
78116;SDS011;69042;59.120;37.904;2023-12-07T03:36:47;8.00;;;3.63;;
78116;SDS011;69042;59.120;37.904;2023-12-07T03:39:14;8.25;;;3.90;;
78116;SDS011;69042;59.120;37.904;2023-12-07T03:41:41;8.18;;;3.55;;
78116;SDS011;69042;59.120;37.904;2023-12-07T03:44:07;6.18;;;2.35;;
78116;SDS011;69042;59.120;37.904;2023-12-07T03:46:33;5.80;;;2.45;;
78116;SDS011;69042;59.120;37.904;2023-12-07T03:48:59;7.53;;;2.92;;
78116;SDS011;69042;59.120;37.904;2023-12-07T03:51:26;5.90;;;2.65;;
78116;SDS011;69042;59.120;37.904;2023-12-07T03:53:53;9.35;;;2.22;;
78116;SDS011;69042;59.120;37.904;2023-12-07T03:56:27;9.60;;;3.55;;
78116;SDS011;69042;59.120;37.904;2023-12-07T03:58:55;8.52;;;2.85;;
78116;SDS011;69042;59.120;37.904;2023-12-07T04:01:26;8.52;;;3.55;;
78116;SDS011;69042;59.120;37.904;2023-12-07T04:03:53;7.63;;;3.08;;
78116;SDS011;69042;59.120;37.904;2023-12-07T04:06:21;8.45;;;3.33;;
78116;SDS011;69042;59.120;37.904;2023-12-07T04:08:48;7.55;;;2.47;;
78116;SDS011;69042;59.120;37.904;2023-12-07T04:11:15;9.63;;;2.95;;
78116;SDS011;69042;59.120;37.904;2023-12-07T04:13:41;8.15;;;2.60;;
78116;SDS011;69042;59.120;37.904;2023-12-07T04:16:08;9.50;;;2.15;;
78116;SDS011;69042;59.120;37.904;2023-12-07T04:18:34;7.45;;;2.70;;
78116;SDS011;69042;59.120;37.904;2023-12-07T04:21:01;6.28;;;2.35;;
78116;SDS011;69042;59.120;37.904;2023-12-07T04:23:28;6.72;;;2.47;;
78116;SDS011;69042;59.120;37.904;2023-12-07T04:25:54;5.25;;;3.42;;
78116;SDS011;69042;59.120;37.904;2023-12-07T04:28:20;7.88;;;4.18;;
78116;SDS011;69042;59.120;37.904;2023-12-07T04:30:47;6.50;;;2.60;;
78116;SDS011;69042;59.120;37.904;2023-12-07T04:33:13;10.70;;;4.38;;
78116;SDS011;69042;59.120;37.904;2023-12-07T04:35:39;9.60;;;3.83;;
78116;SDS011;69042;59.120;37.904;2023-12-07T04:38:24;8.27;;;2.60;;
78116;SDS011;69042;59.120;37.904;2023-12-07T04:40:50;11.32;;;4.13;;
78116;SDS011;69042;59.120;37.904;2023-12-07T04:43:16;7.53;;;2.75;;
78116;SDS011;69042;59.120;37.904;2023-12-07T04:45:42;9.88;;;4.03;;
78116;SDS011;69042;59.120;37.904;2023-12-07T04:48:09;9.30;;;3.92;;
78116;SDS011;69042;59.120;37.904;2023-12-07T04:50:35;6.93;;;2.80;;
78116;SDS011;69042;59.120;37.904;2023-12-07T04:53:01;8.30;;;3.55;;
78116;SDS011;69042;59.120;37.904;2023-12-07T04:55:27;6.50;;;3.17;;
78116;SDS011;69042;59.120;37.904;2023-12-07T04:57:53;8.90;;;3.58;;
78116;SDS011;69042;59.120;37.904;2023-12-07T05:00:20;8.02;;;3.03;;
78116;SDS011;69042;59.120;37.904;2023-12-07T05:02:47;1.95;;;1.10;;
78116;SDS011;69042;59.120;37.904;2023-12-07T05:05:13;8.93;;;3.63;;
78116;SDS011;69042;59.120;37.904;2023-12-07T05:07:40;10.00;;;3.33;;
78116;SDS011;69042;59.120;37.904;2023-12-07T05:10:24;6.32;;;2.85;;
78116;SDS011;69042;59.120;37.904;2023-12-07T05:13:09;8.77;;;3.67;;
78116;SDS011;69042;59.120;37.904;2023-12-07T05:15:35;7.10;;;3.00;;
78116;SDS011;69042;59.120;37.904;2023-12-07T05:18:02;8.45;;;3.13;;
78116;SDS011;69042;59.120;37.904;2023-12-07T05:20:28;8.98;;;2.92;;
78116;SDS011;69042;59.120;37.904;2023-12-07T05:22:55;11.70;;;4.22;;
78116;SDS011;69042;59.120;37.904;2023-12-07T05:25:21;9.35;;;3.13;;
78116;SDS011;69042;59.120;37.904;2023-12-07T05:27:47;6.40;;;2.30;;
78116;SDS011;69042;59.120;37.904;2023-12-07T05:30:13;8.80;;;3.58;;
78116;SDS011;69042;59.120;37.904;2023-12-07T05:32:40;8.65;;;3.35;;
78116;SDS011;69042;59.120;37.904;2023-12-07T05:35:06;6.18;;;2.17;;
78116;SDS011;69042;59.120;37.904;2023-12-07T05:37:33;11.25;;;3.03;;
78116;SDS011;69042;59.120;37.904;2023-12-07T05:39:59;7.45;;;3.00;;
78116;SDS011;69042;59.120;37.904;2023-12-07T05:42:25;7.60;;;3.33;;
78116;SDS011;69042;59.120;37.904;2023-12-07T05:44:51;11.25;;;3.72;;
78116;SDS011;69042;59.120;37.904;2023-12-07T05:47:17;12.30;;;4.28;;
78116;SDS011;69042;59.120;37.904;2023-12-07T05:49:44;9.27;;;4.15;;
78116;SDS011;69042;59.120;37.904;2023-12-07T05:52:10;8.57;;;3.00;;
78116;SDS011;69042;59.120;37.904;2023-12-07T05:54:36;5.50;;;2.70;;
78116;SDS011;69042;59.120;37.904;2023-12-07T05:57:02;10.40;;;3.97;;
78116;SDS011;69042;59.120;37.904;2023-12-07T05:59:29;12.13;;;4.32;;
78116;SDS011;69042;59.120;37.904;2023-12-07T06:01:55;9.65;;;3.53;;
78116;SDS011;69042;59.120;37.904;2023-12-07T06:04:21;15.80;;;3.58;;
78116;SDS011;69042;59.120;37.904;2023-12-07T06:06:47;9.23;;;3.35;;
78116;SDS011;69042;59.120;37.904;2023-12-07T06:09:14;9.63;;;3.15;;
78116;SDS011;69042;59.120;37.904;2023-12-07T06:11:40;7.95;;;3.20;;
78116;SDS011;69042;59.120;37.904;2023-12-07T06:14:06;17.15;;;3.80;;
78116;SDS011;69042;59.120;37.904;2023-12-07T06:16:33;9.07;;;3.45;;
78116;SDS011;69042;59.120;37.904;2023-12-07T06:18:59;8.02;;;3.20;;
78116;SDS011;69042;59.120;37.904;2023-12-07T06:21:25;7.32;;;2.55;;
78116;SDS011;69042;59.120;37.904;2023-12-07T06:23:54;9.82;;;3.35;;
78116;SDS011;69042;59.120;37.904;2023-12-07T06:26:20;7.90;;;2.85;;
78116;SDS011;69042;59.120;37.904;2023-12-07T06:28:46;6.70;;;2.08;;
78116;SDS011;69042;59.120;37.904;2023-12-07T06:31:13;8.65;;;3.72;;
78116;SDS011;69042;59.120;37.904;2023-12-07T06:33:41;13.50;;;3.55;;
78116;SDS011;69042;59.120;37.904;2023-12-07T06:36:07;8.95;;;4.20;;
78116;SDS011;69042;59.120;37.904;2023-12-07T06:38:35;9.63;;;4.15;;
78116;SDS011;69042;59.120;37.904;2023-12-07T06:41:01;7.82;;;2.92;;
78116;SDS011;69042;59.120;37.904;2023-12-07T06:43:27;10.57;;;3.40;;
78116;SDS011;69042;59.120;37.904;2023-12-07T06:45:53;13.45;;;3.60;;
78116;SDS011;69042;59.120;37.904;2023-12-07T06:48:39;9.35;;;3.63;;
78116;SDS011;69042;59.120;37.904;2023-12-07T06:51:05;8.23;;;2.60;;
78116;SDS011;69042;59.120;37.904;2023-12-07T06:53:31;6.15;;;2.83;;
78116;SDS011;69042;59.120;37.904;2023-12-07T06:55:58;8.52;;;3.63;;
78116;SDS011;69042;59.120;37.904;2023-12-07T06:58:24;12.48;;;3.63;;
78116;SDS011;69042;59.120;37.904;2023-12-07T07:00:50;10.32;;;4.13;;
78116;SDS011;69042;59.120;37.904;2023-12-07T07:03:17;18.15;;;3.33;;
78116;SDS011;69042;59.120;37.904;2023-12-07T07:05:44;10.48;;;3.78;;
78116;SDS011;69042;59.120;37.904;2023-12-07T07:08:10;8.55;;;3.78;;
78116;SDS011;69042;59.120;37.904;2023-12-07T07:10:36;8.95;;;3.45;;
78116;SDS011;69042;59.120;37.904;2023-12-07T07:13:02;12.35;;;3.75;;
78116;SDS011;69042;59.120;37.904;2023-12-07T07:15:32;7.95;;;3.85;;
78116;SDS011;69042;59.120;37.904;2023-12-07T07:17:59;9.27;;;4.28;;
78116;SDS011;69042;59.120;37.904;2023-12-07T07:20:26;7.78;;;3.65;;
78116;SDS011;69042;59.120;37.904;2023-12-07T07:22:53;13.25;;;4.18;;
78116;SDS011;69042;59.120;37.904;2023-12-07T07:25:19;7.88;;;3.25;;
78116;SDS011;69042;59.120;37.904;2023-12-07T07:27:45;14.07;;;4.15;;
78116;SDS011;69042;59.120;37.904;2023-12-07T07:30:12;13.40;;;4.55;;
78116;SDS011;69042;59.120;37.904;2023-12-07T07:32:38;9.20;;;4.13;;
78116;SDS011;69042;59.120;37.904;2023-12-07T07:35:04;13.45;;;4.75;;
78116;SDS011;69042;59.120;37.904;2023-12-07T07:37:31;21.95;;;5.68;;
78116;SDS011;69042;59.120;37.904;2023-12-07T07:39:57;11.30;;;4.22;;
78116;SDS011;69042;59.120;37.904;2023-12-07T07:42:42;13.07;;;3.70;;
78116;SDS011;69042;59.120;37.904;2023-12-07T07:45:27;17.50;;;3.83;;
78116;SDS011;69042;59.120;37.904;2023-12-07T07:47:53;8.88;;;3.50;;
78116;SDS011;69042;59.120;37.904;2023-12-07T07:50:19;13.93;;;4.47;;
78116;SDS011;69042;59.120;37.904;2023-12-07T07:52:46;8.07;;;2.42;;
78116;SDS011;69042;59.120;37.904;2023-12-07T07:55:12;12.63;;;4.30;;
78116;SDS011;69042;59.120;37.904;2023-12-07T07:57:38;13.85;;;4.72;;
78116;SDS011;69042;59.120;37.904;2023-12-07T08:00:05;7.47;;;3.25;;
78116;SDS011;69042;59.120;37.904;2023-12-07T08:02:34;10.57;;;3.78;;
78116;SDS011;69042;59.120;37.904;2023-12-07T08:05:02;10.73;;;3.90;;
78116;SDS011;69042;59.120;37.904;2023-12-07T08:07:29;8.77;;;3.97;;
78116;SDS011;69042;59.120;37.904;2023-12-07T08:09:55;10.18;;;4.28;;
78116;SDS011;69042;59.120;37.904;2023-12-07T08:12:21;13.02;;;4.30;;
78116;SDS011;69042;59.120;37.904;2023-12-07T08:14:49;8.73;;;3.95;;
78116;SDS011;69042;59.120;37.904;2023-12-07T08:17:15;15.45;;;4.63;;
78116;SDS011;69042;59.120;37.904;2023-12-07T08:19:42;12.15;;;3.95;;
78116;SDS011;69042;59.120;37.904;2023-12-07T08:22:08;8.20;;;3.17;;
78116;SDS011;69042;59.120;37.904;2023-12-07T08:24:34;12.65;;;4.70;;
78116;SDS011;69042;59.120;37.904;2023-12-07T08:27:02;9.93;;;3.53;;
78116;SDS011;69042;59.120;37.904;2023-12-07T08:29:29;7.45;;;3.10;;
78116;SDS011;69042;59.120;37.904;2023-12-07T08:31:55;6.88;;;2.55;;
78116;SDS011;69042;59.120;37.904;2023-12-07T08:34:21;8.50;;;3.50;;
78116;SDS011;69042;59.120;37.904;2023-12-07T08:36:47;12.38;;;4.38;;
78116;SDS011;69042;59.120;37.904;2023-12-07T08:39:14;6.03;;;2.40;;
78116;SDS011;69042;59.120;37.904;2023-12-07T08:41:40;9.63;;;3.55;;
78116;SDS011;69042;59.120;37.904;2023-12-07T08:44:06;9.30;;;3.25;;
78116;SDS011;69042;59.120;37.904;2023-12-07T08:46:32;7.97;;;3.17;;
78116;SDS011;69042;59.120;37.904;2023-12-07T08:48:59;10.35;;;3.80;;
78116;SDS011;69042;59.120;37.904;2023-12-07T08:51:25;7.15;;;3.15;;
78116;SDS011;69042;59.120;37.904;2023-12-07T08:53:51;7.47;;;3.70;;
78116;SDS011;69042;59.120;37.904;2023-12-07T08:56:18;8.38;;;3.78;;
78116;SDS011;69042;59.120;37.904;2023-12-07T08:58:45;9.40;;;3.90;;
78116;SDS011;69042;59.120;37.904;2023-12-07T09:01:11;10.85;;;3.88;;
78116;SDS011;69042;59.120;37.904;2023-12-07T09:03:56;10.15;;;3.45;;
78116;SDS011;69042;59.120;37.904;2023-12-07T09:06:22;10.30;;;4.55;;
78116;SDS011;69042;59.120;37.904;2023-12-07T09:08:49;15.57;;;4.25;;
78116;SDS011;69042;59.120;37.904;2023-12-07T09:11:15;8.98;;;3.85;;
78116;SDS011;69042;59.120;37.904;2023-12-07T09:13:41;12.15;;;3.22;;
78116;SDS011;69042;59.120;37.904;2023-12-07T09:16:07;8.75;;;2.85;;
78116;SDS011;69042;59.120;37.904;2023-12-07T09:18:34;8.23;;;3.35;;
78116;SDS011;69042;59.120;37.904;2023-12-07T09:21:01;6.78;;;3.22;;
78116;SDS011;69042;59.120;37.904;2023-12-07T09:23:28;7.25;;;2.80;;
78116;SDS011;69042;59.120;37.904;2023-12-07T09:25:54;9.27;;;3.88;;
78116;SDS011;69042;59.120;37.904;2023-12-07T09:28:21;8.85;;;3.53;;
78116;SDS011;69042;59.120;37.904;2023-12-07T09:30:47;8.38;;;2.85;;
78116;SDS011;69042;59.120;37.904;2023-12-07T09:33:13;8.45;;;3.05;;
78116;SDS011;69042;59.120;37.904;2023-12-07T09:35:40;10.65;;;3.63;;
78116;SDS011;69042;59.120;37.904;2023-12-07T09:38:06;15.32;;;4.57;;
78116;SDS011;69042;59.120;37.904;2023-12-07T09:40:32;8.95;;;3.17;;
78116;SDS011;69042;59.120;37.904;2023-12-07T09:42:59;8.32;;;2.97;;
78116;SDS011;69042;59.120;37.904;2023-12-07T09:45:25;15.88;;;4.38;;
78116;SDS011;69042;59.120;37.904;2023-12-07T09:47:52;9.13;;;3.72;;
78116;SDS011;69042;59.120;37.904;2023-12-07T09:50:21;8.88;;;3.33;;
78116;SDS011;69042;59.120;37.904;2023-12-07T09:52:50;14.23;;;3.97;;
78116;SDS011;69042;59.120;37.904;2023-12-07T09:55:18;8.15;;;3.15;;
78116;SDS011;69042;59.120;37.904;2023-12-07T09:57:48;8.07;;;3.78;;
78116;SDS011;69042;59.120;37.904;2023-12-07T10:00:16;7.05;;;3.20;;
78116;SDS011;69042;59.120;37.904;2023-12-07T10:02:44;7.35;;;2.85;;
78116;SDS011;69042;59.120;37.904;2023-12-07T10:05:12;7.32;;;2.83;;
78116;SDS011;69042;59.120;37.904;2023-12-07T10:07:40;6.82;;;2.80;;
78116;SDS011;69042;59.120;37.904;2023-12-07T10:10:07;7.40;;;2.70;;
78116;SDS011;69042;59.120;37.904;2023-12-07T10:12:34;8.60;;;3.13;;
78116;SDS011;69042;59.120;37.904;2023-12-07T10:15:01;9.50;;;3.25;;
78116;SDS011;69042;59.120;37.904;2023-12-07T10:20:33;11.35;;;4.68;;
78116;SDS011;69042;59.120;37.904;2023-12-07T10:23:06;18.05;;;4.13;;
78116;SDS011;69042;59.120;37.904;2023-12-07T10:25:37;11.77;;;4.43;;
78116;SDS011;69042;59.120;37.904;2023-12-07T10:28:04;12.70;;;4.20;;
78116;SDS011;69042;59.120;37.904;2023-12-07T10:30:33;25.85;;;5.03;;
78116;SDS011;69042;59.120;37.904;2023-12-07T10:33:02;9.82;;;4.75;;
78116;SDS011;69042;59.120;37.904;2023-12-07T10:35:29;10.32;;;4.00;;
78116;SDS011;69042;59.120;37.904;2023-12-07T10:37:57;11.82;;;4.32;;
78116;SDS011;69042;59.120;37.904;2023-12-07T10:40:23;12.00;;;4.70;;
78116;SDS011;69042;59.120;37.904;2023-12-07T10:42:49;15.40;;;6.00;;
78116;SDS011;69042;59.120;37.904;2023-12-07T10:45:24;14.63;;;5.03;;
78116;SDS011;69042;59.120;37.904;2023-12-07T10:47:54;14.20;;;4.65;;
78116;SDS011;69042;59.120;37.904;2023-12-07T10:50:37;17.65;;;5.45;;
78116;SDS011;69042;59.120;37.904;2023-12-07T10:53:08;18.48;;;5.75;;
78116;SDS011;69042;59.120;37.904;2023-12-07T10:55:46;23.88;;;5.97;;
78116;SDS011;69042;59.120;37.904;2023-12-07T10:58:17;18.42;;;4.60;;
78116;SDS011;69042;59.120;37.904;2023-12-07T11:00:45;17.33;;;6.10;;
78116;SDS011;69042;59.120;37.904;2023-12-07T11:03:16;28.77;;;7.03;;
78116;SDS011;69042;59.120;37.904;2023-12-07T11:05:47;11.65;;;5.38;;
78116;SDS011;69042;59.120;37.904;2023-12-07T11:13:24;16.20;;;5.88;;
78116;SDS011;69042;59.120;37.904;2023-12-07T11:15:55;15.25;;;6.03;;
78116;SDS011;69042;59.120;37.904;2023-12-07T11:18:26;20.65;;;8.13;;
78116;SDS011;69042;59.120;37.904;2023-12-07T11:20:53;22.77;;;7.65;;
78116;SDS011;69042;59.120;37.904;2023-12-07T11:23:20;23.70;;;7.78;;
78116;SDS011;69042;59.120;37.904;2023-12-07T11:25:47;16.67;;;7.32;;
78116;SDS011;69042;59.120;37.904;2023-12-07T11:28:16;22.20;;;8.43;;
78116;SDS011;69042;59.120;37.904;2023-12-07T11:30:46;24.05;;;9.48;;
78116;SDS011;69042;59.120;37.904;2023-12-07T11:33:14;21.92;;;8.90;;
78116;SDS011;69042;59.120;37.904;2023-12-07T11:38:25;20.50;;;6.53;;
78116;SDS011;69042;59.120;37.904;2023-12-07T11:40:51;20.35;;;7.63;;
78116;SDS011;69042;59.120;37.904;2023-12-07T11:43:36;18.58;;;7.50;;
78116;SDS011;69042;59.120;37.904;2023-12-07T11:46:06;18.55;;;6.90;;
78116;SDS011;69042;59.120;37.904;2023-12-07T11:48:33;17.00;;;7.18;;
78116;SDS011;69042;59.120;37.904;2023-12-07T11:51:00;17.05;;;7.38;;
78116;SDS011;69042;59.120;37.904;2023-12-07T11:53:45;19.10;;;6.60;;
78116;SDS011;69042;59.120;37.904;2023-12-07T11:56:14;18.55;;;6.63;;
78116;SDS011;69042;59.120;37.904;2023-12-07T11:58:44;17.73;;;7.00;;
78116;SDS011;69042;59.120;37.904;2023-12-07T12:01:12;16.20;;;6.82;;
78116;SDS011;69042;59.120;37.904;2023-12-07T12:03:38;15.85;;;6.95;;
78116;SDS011;69042;59.120;37.904;2023-12-07T12:06:05;22.08;;;7.82;;
78116;SDS011;69042;59.120;37.904;2023-12-07T12:08:33;25.02;;;8.20;;
78116;SDS011;69042;59.120;37.904;2023-12-07T12:11:00;20.85;;;6.82;;
78116;SDS011;69042;59.120;37.904;2023-12-07T12:13:27;18.30;;;7.20;;
78116;SDS011;69042;59.120;37.904;2023-12-07T12:15:59;21.65;;;8.02;;
78116;SDS011;69042;59.120;37.904;2023-12-07T12:18:26;22.25;;;7.43;;
78116;SDS011;69042;59.120;37.904;2023-12-07T12:20:53;18.92;;;6.82;;
78116;SDS011;69042;59.120;37.904;2023-12-07T12:23:20;17.60;;;5.78;;
78116;SDS011;69042;59.120;37.904;2023-12-07T12:25:47;17.30;;;6.47;;
78116;SDS011;69042;59.120;37.904;2023-12-07T12:28:15;18.77;;;5.90;;
78116;SDS011;69042;59.120;37.904;2023-12-07T12:30:43;15.38;;;5.30;;
78116;SDS011;69042;59.120;37.904;2023-12-07T12:33:10;10.32;;;4.65;;
78116;SDS011;69042;59.120;37.904;2023-12-07T12:35:36;17.98;;;7.45;;
78116;SDS011;69042;59.120;37.904;2023-12-07T12:38:02;23.90;;;8.68;;
78116;SDS011;69042;59.120;37.904;2023-12-07T12:40:36;22.20;;;8.38;;
78116;SDS011;69042;59.120;37.904;2023-12-07T12:43:02;19.95;;;7.88;;
78116;SDS011;69042;59.120;37.904;2023-12-07T12:45:29;21.00;;;7.88;;
78116;SDS011;69042;59.120;37.904;2023-12-07T12:47:55;21.75;;;7.82;;
78116;SDS011;69042;59.120;37.904;2023-12-07T12:50:55;23.10;;;7.57;;
78116;SDS011;69042;59.120;37.904;2023-12-07T12:53:16;18.25;;;6.28;;
78116;SDS011;69042;59.120;37.904;2023-12-07T12:55:42;19.10;;;6.68;;
78116;SDS011;69042;59.120;37.904;2023-12-07T12:58:09;19.50;;;7.03;;
78116;SDS011;69042;59.120;37.904;2023-12-07T13:00:39;15.10;;;6.70;;
78116;SDS011;69042;59.120;37.904;2023-12-07T13:03:06;19.33;;;7.85;;
78116;SDS011;69042;59.120;37.904;2023-12-07T13:05:33;19.45;;;7.85;;
78116;SDS011;69042;59.120;37.904;2023-12-07T13:08:00;22.10;;;7.47;;
78116;SDS011;69042;59.120;37.904;2023-12-07T13:10:27;15.52;;;6.43;;
78116;SDS011;69042;59.120;37.904;2023-12-07T13:12:53;22.60;;;9.32;;
78116;SDS011;69042;59.120;37.904;2023-12-07T13:15:21;16.98;;;6.82;;
78116;SDS011;69042;59.120;37.904;2023-12-07T13:17:47;13.30;;;5.07;;
78116;SDS011;69042;59.120;37.904;2023-12-07T13:20:14;16.95;;;7.25;;
78116;SDS011;69042;59.120;37.904;2023-12-07T13:22:41;15.48;;;7.03;;
78116;SDS011;69042;59.120;37.904;2023-12-07T13:25:11;15.15;;;6.63;;
78116;SDS011;69042;59.120;37.904;2023-12-07T13:27:40;19.80;;;7.78;;
78116;SDS011;69042;59.120;37.904;2023-12-07T13:30:06;20.73;;;8.57;;
78116;SDS011;69042;59.120;37.904;2023-12-07T13:32:33;21.40;;;8.43;;
78116;SDS011;69042;59.120;37.904;2023-12-07T13:35:03;22.50;;;7.88;;
78116;SDS011;69042;59.120;37.904;2023-12-07T13:37:30;23.65;;;8.90;;
78116;SDS011;69042;59.120;37.904;2023-12-07T13:39:58;23.60;;;8.13;;
78116;SDS011;69042;59.120;37.904;2023-12-07T13:42:25;18.83;;;7.90;;
78116;SDS011;69042;59.120;37.904;2023-12-07T13:44:56;18.30;;;7.18;;
78116;SDS011;69042;59.120;37.904;2023-12-07T13:47:24;20.92;;;7.43;;
78116;SDS011;69042;59.120;37.904;2023-12-07T13:50:03;19.08;;;8.20;;
78116;SDS011;69042;59.120;37.904;2023-12-07T13:52:31;16.08;;;7.35;;
78116;SDS011;69042;59.120;37.904;2023-12-07T13:54:57;20.50;;;8.40;;
78116;SDS011;69042;59.120;37.904;2023-12-07T13:57:24;17.95;;;6.80;;
78116;SDS011;69042;59.120;37.904;2023-12-07T13:59:51;20.33;;;6.90;;
78116;SDS011;69042;59.120;37.904;2023-12-07T14:02:18;15.88;;;6.20;;
78116;SDS011;69042;59.120;37.904;2023-12-07T14:04:45;13.35;;;5.53;;
78116;SDS011;69042;59.120;37.904;2023-12-07T14:07:16;14.88;;;6.75;;
78116;SDS011;69042;59.120;37.904;2023-12-07T14:09:45;25.00;;;10.10;;
78116;SDS011;69042;59.120;37.904;2023-12-07T14:12:13;23.65;;;10.13;;
78116;SDS011;69042;59.120;37.904;2023-12-07T14:14:41;29.25;;;9.35;;
78116;SDS011;69042;59.120;37.904;2023-12-07T14:17:08;25.80;;;9.38;;
78116;SDS011;69042;59.120;37.904;2023-12-07T14:19:34;25.35;;;9.27;;
78116;SDS011;69042;59.120;37.904;2023-12-07T14:22:03;25.65;;;9.15;;
78116;SDS011;69042;59.120;37.904;2023-12-07T14:24:32;21.95;;;8.82;;
78116;SDS011;69042;59.120;37.904;2023-12-07T14:27:02;22.30;;;9.27;;
78116;SDS011;69042;59.120;37.904;2023-12-07T14:29:29;20.55;;;8.20;;
78116;SDS011;69042;59.120;37.904;2023-12-07T14:31:58;23.20;;;7.88;;
78116;SDS011;69042;59.120;37.904;2023-12-07T14:34:25;20.77;;;8.45;;
78116;SDS011;69042;59.120;37.904;2023-12-07T14:36:55;24.42;;;9.13;;
78116;SDS011;69042;59.120;37.904;2023-12-07T14:39:21;20.83;;;7.82;;
78116;SDS011;69042;59.120;37.904;2023-12-07T14:41:48;21.55;;;7.82;;
78116;SDS011;69042;59.120;37.904;2023-12-07T14:44:35;25.60;;;8.23;;